createdAt,value
2022-10-24T00:01:19.523Z,8.75
2022-10-24T00:03:47.668Z,7.55
2022-10-24T00:06:15.248Z,7.40
2022-10-24T00:08:43.804Z,8.07
2022-10-24T00:11:15.682Z,7.70
2022-10-24T00:13:43.397Z,7.78
2022-10-24T00:16:11.441Z,7.97
2022-10-24T00:18:38.900Z,8.07
2022-10-24T00:21:07.715Z,7.18
2022-10-24T00:23:35.261Z,7.53
2022-10-24T00:26:04.420Z,8.00
2022-10-24T00:28:34.135Z,7.43
2022-10-24T00:31:01.614Z,7.15
2022-10-24T00:33:29.230Z,7.10
2022-10-24T00:35:56.197Z,7.80
2022-10-24T00:38:23.217Z,7.75
2022-10-24T00:40:50.672Z,7.65
2022-10-24T00:43:21.956Z,8.25
2022-10-24T00:45:56.886Z,7.68
2022-10-24T00:48:32.229Z,8.02
2022-10-24T00:51:07.327Z,8.05
2022-10-24T00:53:42.330Z,9.00
2022-10-24T00:56:11.635Z,9.82
2022-10-24T00:58:40.443Z,9.55
2022-10-24T01:01:09.244Z,9.68
2022-10-24T01:03:36.705Z,10.00
2022-10-24T01:06:41.575Z,10.40
2022-10-24T01:09:17.670Z,9.57
2022-10-24T01:12:14.920Z,9.30
2022-10-24T01:14:46.773Z,9.97
2022-10-24T01:18:06.230Z,10.18
2022-10-24T01:20:49.152Z,10.23
2022-10-24T01:23:49.654Z,10.60
2022-10-24T01:26:41.722Z,9.80
2022-10-24T01:29:20.224Z,10.05
2022-10-24T01:31:50.111Z,10.55
2022-10-24T01:34:55.789Z,9.88
2022-10-24T01:37:36.609Z,10.20
2022-10-24T01:40:12.872Z,10.82
2022-10-24T01:42:41.816Z,10.47
2022-10-24T01:45:13.828Z,10.80
2022-10-24T01:47:47.855Z,10.70
2022-10-24T01:50:18.260Z,10.32
2022-10-24T01:52:47.374Z,10.75
2022-10-24T01:55:14.757Z,11.68
2022-10-24T01:57:42.663Z,10.75
2022-10-24T02:00:18.014Z,12.32
2022-10-24T02:02:50.354Z,12.73
2022-10-24T02:05:25.842Z,12.27
2022-10-24T02:07:56.993Z,11.93
2022-10-24T02:10:29.946Z,11.50
2022-10-24T02:13:04.061Z,12.93
2022-10-24T02:15:35.844Z,12.38
2022-10-24T02:18:03.124Z,13.07
2022-10-24T02:20:55.827Z,11.95
2022-10-24T02:23:36.722Z,12.77
2022-10-24T02:26:08.221Z,12.60
2022-10-24T02:28:41.571Z,12.10
2022-10-24T02:31:16.606Z,12.45
2022-10-24T02:33:46.711Z,12.35
2022-10-24T02:36:18.591Z,12.02
2022-10-24T02:38:48.765Z,12.18
2022-10-24T02:41:28.795Z,12.00
2022-10-24T02:43:57.584Z,13.38
2022-10-24T02:46:26.460Z,12.80
2022-10-24T02:49:02.267Z,13.20
2022-10-24T02:51:40.966Z,13.52
2022-10-24T02:54:08.470Z,12.38
2022-10-24T02:56:37.631Z,13.02
2022-10-24T02:59:04.774Z,13.48
2022-10-24T03:01:31.963Z,13.15
2022-10-24T03:03:59.124Z,13.73
2022-10-24T03:06:26.174Z,13.18
2022-10-24T03:08:53.189Z,14.07
2022-10-24T03:11:20.254Z,13.15
2022-10-24T03:13:47.299Z,13.95
2022-10-24T03:16:14.467Z,13.57
2022-10-24T03:18:41.521Z,13.30
2022-10-24T03:21:09.041Z,13.38
2022-10-24T03:23:36.088Z,13.80
2022-10-24T03:26:03.065Z,13.38
2022-10-24T03:28:30.187Z,13.68
2022-10-24T03:30:57.191Z,13.48
2022-10-24T03:33:24.311Z,12.15
2022-10-24T03:35:55.665Z,11.52
2022-10-24T03:38:23.530Z,11.93
2022-10-24T03:40:51.341Z,12.43
2022-10-24T03:43:19.251Z,11.90
2022-10-24T03:45:46.304Z,11.90
2022-10-24T03:48:13.502Z,11.43
2022-10-24T03:50:40.753Z,10.30
2022-10-24T03:53:07.921Z,9.82
2022-10-24T03:55:35.143Z,11.10
2022-10-24T03:58:02.125Z,11.18
2022-10-24T04:00:29.386Z,10.15
2022-10-24T04:02:56.721Z,9.40
2022-10-24T04:05:23.752Z,9.68
2022-10-24T04:07:50.800Z,9.60
2022-10-24T04:10:18.004Z,10.30
2022-10-24T04:12:45.035Z,9.10
2022-10-24T04:15:12.058Z,9.73
2022-10-24T04:17:39.148Z,9.02
2022-10-24T04:20:06.953Z,9.20
2022-10-24T04:22:34.291Z,8.50
2022-10-24T04:25:01.486Z,8.52
2022-10-24T04:27:28.478Z,9.05
2022-10-24T04:29:55.525Z,9.00
2022-10-24T04:32:22.518Z,8.48
2022-10-24T04:34:49.711Z,8.45
2022-10-24T04:37:16.776Z,7.93
2022-10-24T04:39:43.856Z,8.20
2022-10-24T04:42:10.929Z,7.45
2022-10-24T04:44:38.031Z,7.40
2022-10-24T04:47:05.134Z,7.65
2022-10-24T04:49:32.240Z,7.07
2022-10-24T04:51:59.239Z,7.63
2022-10-24T04:54:26.374Z,6.45
2022-10-24T04:56:53.483Z,6.93
2022-10-24T04:59:20.466Z,6.70
2022-10-24T05:01:47.555Z,6.85
2022-10-24T05:04:14.989Z,6.05
2022-10-24T05:06:44.237Z,7.18
2022-10-24T05:09:12.666Z,7.30
2022-10-24T05:11:39.794Z,7.28
2022-10-24T05:14:07.564Z,6.95
2022-10-24T05:16:34.626Z,6.22
2022-10-24T05:19:01.663Z,5.93
2022-10-24T05:21:28.726Z,6.75
2022-10-24T05:23:55.739Z,6.68
2022-10-24T05:26:22.782Z,7.00
2022-10-24T05:28:52.420Z,6.80
2022-10-24T05:31:20.040Z,7.47
2022-10-24T05:33:47.119Z,7.53
2022-10-24T05:36:14.272Z,6.50
2022-10-24T05:38:41.360Z,7.53
2022-10-24T05:41:08.467Z,7.57
2022-10-24T05:43:35.520Z,7.78
2022-10-24T05:46:02.643Z,7.70
2022-10-24T05:48:29.578Z,7.97
2022-10-24T05:50:58.337Z,7.55
2022-10-24T05:53:26.643Z,8.15
2022-10-24T05:55:53.775Z,7.03
2022-10-24T05:58:21.221Z,7.03
2022-10-24T06:00:53.517Z,7.78
2022-10-24T06:03:20.993Z,7.40
2022-10-24T06:05:47.966Z,7.43
2022-10-24T06:08:14.989Z,7.22
2022-10-24T06:10:42.347Z,7.15
2022-10-24T06:13:09.390Z,7.38
2022-10-24T06:15:36.329Z,7.82
2022-10-24T06:18:03.527Z,7.38
2022-10-24T06:20:30.457Z,8.20
2022-10-24T06:22:57.388Z,7.13
2022-10-24T06:25:24.380Z,7.93
2022-10-24T06:27:51.487Z,7.72
2022-10-24T06:30:18.733Z,8.30
2022-10-24T06:32:46.105Z,7.65
2022-10-24T06:35:14.863Z,8.13
2022-10-24T06:37:45.726Z,7.88
2022-10-24T06:40:15.866Z,9.30
2022-10-24T06:42:42.882Z,8.13
2022-10-24T06:45:10.049Z,8.15
2022-10-24T06:47:37.255Z,8.00
2022-10-24T06:50:05.389Z,8.50
2022-10-24T06:52:32.528Z,8.02
2022-10-24T06:54:59.567Z,8.10
2022-10-24T06:57:26.538Z,8.43
2022-10-24T06:59:53.771Z,7.65
2022-10-24T07:02:21.182Z,7.60
2022-10-24T07:04:48.187Z,7.35
2022-10-24T07:07:20.969Z,7.75
2022-10-24T07:09:55.937Z,7.90
2022-10-24T07:12:25.692Z,6.57
2022-10-24T07:14:52.867Z,7.57
2022-10-24T07:17:20.631Z,6.78
2022-10-24T07:19:53.956Z,6.97
2022-10-24T07:22:21.140Z,6.68
2022-10-24T07:24:54.277Z,6.93
2022-10-24T07:27:21.984Z,7.18
2022-10-24T07:29:49.137Z,7.60
2022-10-24T07:32:16.317Z,7.20
2022-10-24T07:34:43.583Z,7.25
2022-10-24T07:37:10.555Z,7.00
2022-10-24T07:39:37.697Z,6.90
2022-10-24T07:42:04.776Z,6.72
2022-10-24T07:44:31.831Z,6.22
2022-10-24T07:46:58.843Z,7.03
2022-10-24T07:49:28.996Z,6.63
2022-10-24T07:51:58.503Z,6.32
2022-10-24T07:54:26.913Z,6.32
2022-10-24T07:56:54.240Z,6.00
2022-10-24T07:59:40.766Z,6.15
2022-10-24T08:02:11.375Z,6.13
2022-10-24T08:04:38.412Z,5.57
2022-10-24T08:07:08.286Z,5.82
2022-10-24T08:09:38.310Z,4.97
2022-10-24T08:12:05.296Z,5.20
2022-10-24T08:14:32.313Z,4.97
2022-10-24T08:16:59.302Z,5.57
2022-10-24T08:19:26.344Z,4.78
2022-10-24T08:21:53.456Z,4.72
2022-10-24T08:24:20.646Z,4.70
2022-10-24T08:26:48.033Z,4.82
2022-10-24T08:29:22.065Z,3.92
2022-10-24T08:31:54.376Z,3.25
2022-10-24T08:34:22.328Z,3.20
2022-10-24T08:36:50.492Z,2.88
2022-10-24T08:39:18.324Z,2.90
2022-10-24T08:41:47.254Z,2.90
2022-10-24T08:44:22.296Z,3.00
2022-10-24T08:47:10.095Z,3.33
2022-10-24T08:49:52.430Z,3.47
2022-10-24T08:52:45.213Z,3.63
2022-10-24T08:55:30.995Z,3.45
2022-10-24T08:58:06.252Z,3.58
2022-10-24T09:00:46.834Z,4.00
2022-10-24T09:03:51.125Z,3.63
2022-10-24T09:06:22.302Z,3.65
2022-10-24T09:09:10.660Z,3.90
2022-10-24T09:11:43.482Z,3.72
2022-10-24T09:14:17.547Z,3.30
2022-10-24T09:16:49.170Z,3.60
2022-10-24T09:19:21.118Z,3.30
2022-10-24T09:21:49.434Z,3.63
2022-10-24T09:24:26.045Z,4.00
2022-10-24T09:26:53.102Z,3.90
2022-10-24T09:29:20.133Z,4.00
2022-10-24T09:31:49.561Z,3.75
2022-10-24T09:34:18.390Z,3.88
2022-10-24T09:36:46.382Z,3.90
2022-10-24T09:39:42.758Z,3.50
2022-10-24T09:42:22.122Z,3.40
2022-10-24T09:44:49.181Z,3.60
2022-10-24T09:47:27.774Z,3.53
2022-10-24T09:49:55.634Z,3.30
2022-10-24T09:52:25.979Z,2.83
2022-10-24T09:55:17.745Z,2.85
2022-10-24T09:57:45.160Z,2.97
2022-10-24T10:00:27.358Z,2.60
2022-10-24T10:03:23.897Z,2.65
2022-10-24T10:05:59.008Z,2.88
2022-10-24T10:08:35.693Z,2.38
2022-10-24T10:11:08.823Z,2.72
2022-10-24T10:13:49.619Z,2.15
2022-10-24T10:16:39.194Z,2.28
2022-10-24T10:19:22.049Z,2.40
2022-10-24T10:22:04.509Z,2.20
2022-10-24T10:24:44.141Z,2.33
2022-10-24T10:27:26.432Z,2.13
2022-10-24T10:30:17.433Z,2.42
2022-10-24T10:33:12.173Z,2.35
2022-10-24T10:36:03.999Z,2.25
2022-10-24T10:38:52.645Z,2.17
2022-10-24T10:41:32.919Z,2.25
2022-10-24T10:44:26.827Z,1.90
2022-10-24T10:47:27.744Z,1.90
2022-10-24T10:50:01.545Z,1.88
2022-10-24T10:52:32.813Z,2.08
2022-10-24T10:55:24.130Z,1.75
2022-10-24T10:58:15.830Z,1.92
2022-10-24T11:00:59.547Z,1.90
2022-10-24T11:03:39.913Z,1.80
2022-10-24T11:06:14.764Z,1.90
2022-10-24T11:09:06.257Z,1.80
2022-10-24T11:11:39.125Z,2.20
2022-10-24T11:14:27.759Z,2.30
2022-10-24T11:17:02.888Z,1.90
2022-10-24T11:19:30.022Z,1.80
2022-10-24T11:22:00.098Z,1.70
2022-10-24T11:24:27.785Z,2.00
2022-10-24T11:27:13.563Z,2.00
2022-10-24T11:29:47.347Z,1.88
2022-10-24T11:32:27.115Z,1.80
2022-10-24T11:35:13.796Z,1.90
2022-10-24T11:37:45.480Z,2.13
2022-10-24T11:40:22.752Z,2.00
2022-10-24T11:43:18.500Z,2.38
2022-10-24T11:45:54.193Z,2.05
2022-10-24T11:51:26.563Z,1.75
2022-10-24T11:53:59.540Z,2.13
2022-10-24T11:56:35.552Z,1.98
2022-10-24T11:59:06.440Z,1.85
2022-10-24T12:01:51.664Z,2.22
2022-10-24T12:04:58.045Z,2.22
2022-10-24T12:07:34.251Z,2.20
2022-10-24T12:10:23.017Z,2.20
2022-10-24T12:13:16.191Z,1.80
2022-10-24T12:15:43.729Z,1.60
2022-10-24T12:18:26.608Z,1.73
2022-10-24T12:20:55.477Z,2.05
2022-10-24T12:23:27.705Z,1.50
2022-10-24T12:26:20.276Z,1.60
2022-10-24T12:28:54.302Z,1.60
2022-10-24T12:31:26.683Z,1.40
2022-10-24T12:34:15.477Z,1.80
2022-10-24T12:37:04.720Z,1.70
2022-10-24T12:39:34.830Z,1.73
2022-10-24T12:42:02.359Z,1.70
2022-10-24T12:44:32.449Z,1.70
2022-10-24T12:47:01.217Z,1.85
2022-10-24T12:49:33.354Z,2.00
2022-10-24T12:52:40.665Z,1.55
2022-10-24T12:55:39.401Z,1.50
2022-10-24T12:58:29.689Z,1.73
2022-10-24T13:01:33.545Z,1.40
2022-10-24T13:04:42.268Z,1.67
2022-10-24T13:07:37.276Z,1.42
2022-10-24T13:10:36.682Z,1.60
2022-10-24T13:13:22.051Z,1.50
2022-10-24T13:16:02.208Z,1.67
2022-10-24T13:18:50.963Z,1.33
2022-10-24T13:21:33.273Z,1.67
2022-10-24T13:24:17.552Z,1.35
2022-10-24T13:27:11.707Z,1.40
2022-10-24T13:29:40.015Z,1.20
2022-10-24T13:32:06.989Z,1.50
2022-10-24T13:34:54.220Z,1.50
2022-10-24T13:37:45.887Z,1.60
2022-10-24T13:40:26.655Z,1.65
2022-10-24T13:43:19.528Z,1.90
2022-10-24T13:46:00.380Z,2.30
2022-10-24T13:48:35.208Z,2.30
2022-10-24T13:51:21.730Z,2.15
2022-10-24T13:53:56.581Z,2.13
2022-10-24T13:56:23.687Z,1.73
2022-10-24T13:58:51.103Z,1.92
2022-10-24T14:01:22.314Z,1.88
2022-10-24T14:03:50.510Z,1.70
2022-10-24T14:06:24.938Z,1.83
2022-10-24T14:09:05.438Z,2.28
2022-10-24T14:11:39.509Z,2.13
2022-10-24T14:14:33.794Z,2.00
2022-10-24T14:17:26.170Z,1.80
2022-10-24T14:20:02.624Z,2.42
2022-10-24T14:25:04.079Z,2.08
2022-10-24T14:27:31.190Z,1.90
2022-10-24T14:30:01.026Z,1.90
2022-10-24T14:32:29.953Z,2.25
2022-10-24T14:34:59.538Z,2.05
2022-10-24T14:37:33.277Z,2.30
2022-10-24T14:40:00.910Z,2.55
2022-10-24T14:42:28.751Z,2.10
2022-10-24T14:44:58.441Z,2.28
2022-10-24T14:47:35.725Z,2.08
2022-10-24T14:50:02.731Z,2.10
2022-10-24T14:52:39.148Z,2.00
2022-10-24T14:55:27.514Z,1.90
2022-10-24T14:57:55.201Z,2.00
2022-10-24T15:00:25.177Z,2.58
2022-10-24T15:02:56.464Z,2.33
2022-10-24T15:05:23.644Z,2.80
2022-10-24T15:08:16.496Z,2.60
2022-10-24T15:10:43.038Z,2.47
2022-10-24T15:13:21.706Z,2.85
2022-10-24T15:15:52.130Z,2.70
2022-10-24T15:18:22.689Z,2.92
2022-10-24T15:20:52.614Z,3.03
2022-10-24T15:23:30.000Z,2.35
2022-10-24T15:26:09.080Z,2.33
2022-10-24T15:28:45.399Z,2.75
2022-10-24T15:31:18.688Z,2.60
2022-10-24T15:33:46.010Z,3.00
2022-10-24T15:36:34.610Z,3.47
2022-10-24T15:39:07.105Z,2.75
2022-10-24T15:41:34.154Z,3.38
2022-10-24T15:44:01.912Z,3.17
2022-10-24T15:46:29.354Z,3.30
2022-10-24T15:48:56.304Z,3.15
2022-10-24T15:51:24.953Z,3.08
2022-10-24T15:53:54.230Z,2.90
2022-10-24T15:56:21.603Z,2.90
2022-10-24T16:01:55.882Z,3.08
2022-10-24T16:04:23.857Z,2.90
2022-10-24T16:06:51.447Z,3.50
2022-10-24T16:09:22.816Z,4.45
2022-10-24T16:11:49.948Z,3.65
2022-10-24T16:14:20.080Z,3.90
2022-10-24T16:16:47.688Z,3.80
2022-10-24T16:19:14.748Z,3.60
2022-10-24T16:21:42.312Z,3.30
2022-10-24T16:24:10.856Z,3.50
2022-10-24T16:26:38.210Z,3.45
2022-10-24T16:29:05.776Z,2.85
2022-10-24T16:31:33.139Z,3.28
2022-10-24T16:34:00.712Z,3.00
2022-10-24T16:36:28.069Z,3.33
2022-10-24T16:38:55.658Z,3.10
2022-10-24T16:41:24.930Z,3.80
2022-10-24T16:43:56.179Z,3.80
2022-10-24T16:46:24.477Z,4.30
2022-10-24T16:48:51.882Z,4.50
2022-10-24T16:51:25.224Z,5.07
2022-10-24T16:53:52.339Z,4.75
2022-10-24T16:56:19.249Z,5.30
2022-10-24T16:58:46.254Z,4.80
2022-10-24T17:01:15.397Z,5.43
2022-10-24T17:03:47.595Z,4.60
2022-10-24T17:06:14.883Z,4.95
2022-10-24T17:08:49.662Z,4.50
2022-10-24T17:11:43.257Z,4.78
2022-10-24T17:14:03.939Z,4.80
2022-10-24T17:16:30.988Z,5.05
2022-10-24T17:19:18.297Z,4.82
2022-10-24T17:21:49.453Z,4.10
2022-10-24T17:24:22.906Z,4.35
2022-10-24T17:26:50.493Z,4.43
2022-10-24T17:29:30.047Z,3.95
2022-10-24T17:31:57.694Z,3.88
2022-10-24T17:34:25.271Z,4.07
2022-10-24T17:37:07.264Z,4.45
2022-10-24T17:39:55.017Z,4.10
2022-10-24T17:42:22.601Z,4.00
2022-10-24T17:44:49.757Z,4.38
2022-10-24T17:47:17.110Z,3.90
2022-10-24T17:49:44.753Z,4.18
2022-10-24T17:52:22.220Z,4.00
2022-10-24T17:54:49.353Z,4.40
2022-10-24T17:57:16.488Z,4.10
2022-10-24T17:59:43.680Z,3.88
2022-10-24T18:02:14.392Z,3.88
2022-10-24T18:04:43.041Z,3.80
2022-10-24T18:07:10.259Z,4.90
2022-10-24T18:09:40.178Z,3.95
2022-10-24T18:12:07.447Z,4.22
2022-10-24T18:14:36.501Z,4.40
2022-10-24T18:17:05.050Z,4.10
2022-10-24T18:19:33.504Z,3.72
2022-10-24T18:22:00.575Z,4.57
2022-10-24T18:24:27.644Z,3.88
2022-10-24T18:26:54.567Z,3.78
2022-10-24T18:29:21.672Z,3.22
2022-10-24T18:31:48.809Z,4.03
2022-10-24T18:34:15.920Z,3.63
2022-10-24T18:36:43.014Z,3.80
2022-10-24T18:39:12.578Z,3.30
2022-10-24T18:42:10.136Z,2.95
2022-10-24T18:44:37.988Z,3.90
2022-10-24T18:47:07.798Z,3.65
2022-10-24T18:49:35.579Z,2.90
2022-10-24T18:52:14.873Z,4.25
2022-10-24T18:54:55.281Z,3.80
2022-10-24T18:57:24.002Z,3.83
2022-10-24T18:59:51.897Z,3.80
2022-10-24T19:02:49.475Z,4.50
2022-10-24T19:05:32.342Z,4.20
2022-10-24T19:07:59.480Z,4.10
2022-10-24T19:10:28.821Z,4.40
2022-10-24T19:12:57.543Z,4.95
2022-10-24T19:15:25.118Z,5.25
2022-10-24T19:17:52.420Z,4.88
2022-10-24T19:20:22.120Z,5.43
2022-10-24T19:22:49.800Z,5.75
2022-10-24T19:25:17.326Z,4.43
2022-10-24T19:27:44.651Z,4.93
2022-10-24T19:30:12.521Z,5.03
2022-10-24T19:32:39.721Z,4.72
2022-10-24T19:35:07.216Z,5.05
2022-10-24T19:37:34.331Z,5.10
2022-10-24T19:40:01.555Z,5.00
2022-10-24T19:42:30.267Z,4.88
2022-10-24T19:44:57.335Z,4.90
2022-10-24T19:47:24.410Z,4.40
2022-10-24T19:49:51.470Z,3.83
2022-10-24T19:52:18.741Z,3.83
2022-10-24T19:54:45.730Z,6.53
2022-10-24T19:57:12.895Z,4.35
2022-10-24T19:59:40.014Z,3.75
2022-10-24T20:02:07.275Z,3.42
2022-10-24T20:04:40.140Z,3.40
2022-10-24T20:07:10.691Z,3.05
2022-10-24T20:09:38.577Z,3.05
2022-10-24T20:12:06.003Z,2.72
2022-10-24T20:14:33.131Z,3.03
2022-10-24T20:17:00.728Z,3.58
2022-10-24T20:19:27.864Z,3.60
2022-10-24T20:21:56.796Z,3.40
2022-10-24T20:24:26.264Z,3.30
2022-10-24T20:26:53.455Z,3.30
2022-10-24T20:29:20.393Z,3.60
2022-10-24T20:31:47.511Z,3.45
2022-10-24T20:34:15.464Z,4.43
2022-10-24T20:36:44.813Z,3.95
2022-10-24T20:39:12.346Z,3.42
2022-10-24T20:41:39.548Z,3.00
2022-10-24T20:44:07.385Z,3.65
2022-10-24T20:46:35.323Z,3.08
2022-10-24T20:49:02.443Z,3.60
2022-10-24T20:51:29.510Z,3.17
2022-10-24T20:53:56.527Z,2.85
2022-10-24T20:56:26.158Z,3.05
2022-10-24T20:58:55.301Z,3.22
2022-10-24T21:01:25.394Z,3.17
2022-10-24T21:03:53.501Z,3.05
2022-10-24T21:06:25.986Z,2.90
2022-10-24T21:08:55.308Z,3.28
2022-10-24T21:11:26.510Z,3.00
2022-10-24T21:14:03.264Z,3.70
2022-10-24T21:16:31.346Z,3.17
2022-10-24T21:18:59.321Z,3.20
2022-10-24T21:21:27.584Z,2.92
2022-10-24T21:24:00.806Z,3.15
2022-10-24T21:26:31.503Z,3.45
2022-10-24T21:29:08.651Z,3.10
2022-10-24T21:31:41.828Z,3.53
2022-10-24T21:34:08.780Z,3.20
2022-10-24T21:36:35.801Z,3.05
2022-10-24T21:39:02.874Z,3.35
2022-10-24T21:41:29.990Z,3.15
2022-10-24T21:43:58.491Z,3.20
2022-10-24T21:46:29.401Z,3.17
2022-10-24T21:48:57.223Z,3.25
2022-10-24T21:51:30.315Z,3.15
2022-10-24T21:54:14.399Z,3.22
2022-10-24T21:56:41.448Z,2.95
2022-10-24T21:59:13.648Z,3.20
2022-10-24T22:01:42.292Z,3.42
2022-10-24T22:04:11.628Z,3.85
2022-10-24T22:06:38.886Z,4.15
2022-10-24T22:09:08.071Z,3.40
2022-10-24T22:11:36.616Z,3.55
2022-10-24T22:14:05.513Z,3.42
2022-10-24T22:16:33.418Z,3.53
2022-10-24T22:19:05.570Z,3.67
2022-10-24T22:21:33.991Z,3.65
2022-10-24T22:24:04.747Z,3.70
2022-10-24T22:26:31.956Z,3.92
2022-10-24T22:28:59.114Z,3.60
2022-10-24T22:31:28.976Z,3.53
2022-10-24T22:33:56.930Z,3.17
2022-10-24T22:36:42.547Z,3.45
2022-10-24T22:39:18.466Z,3.25
2022-10-24T22:41:46.806Z,3.30
2022-10-24T22:44:16.973Z,3.78
2022-10-24T22:47:02.476Z,3.58
2022-10-24T22:49:48.221Z,4.03
2022-10-24T22:52:15.522Z,3.70
2022-10-24T22:54:42.872Z,3.47
2022-10-24T22:57:13.493Z,3.60
2022-10-24T22:59:40.774Z,3.55
2022-10-24T23:02:25.303Z,3.60
2022-10-24T23:05:08.004Z,3.20
2022-10-24T23:07:49.797Z,3.55
2022-10-24T23:10:22.609Z,3.50
2022-10-24T23:12:50.679Z,3.40
2022-10-24T23:15:20.253Z,3.67
2022-10-24T23:17:48.500Z,3.67
2022-10-24T23:20:43.063Z,3.92
2022-10-24T23:23:28.837Z,3.92
2022-10-24T23:26:19.451Z,4.22
2022-10-24T23:29:17.100Z,3.67
2022-10-24T23:31:44.385Z,4.28
2022-10-24T23:34:11.916Z,4.03
2022-10-24T23:36:43.186Z,4.10
2022-10-24T23:39:14.054Z,4.18
2022-10-24T23:41:41.568Z,3.65
2022-10-24T23:44:11.917Z,4.10
2022-10-24T23:46:46.314Z,4.07
2022-10-24T23:49:47.079Z,4.60
2022-10-24T23:52:28.940Z,4.45
2022-10-24T23:54:56.199Z,3.78
2022-10-24T23:57:23.516Z,4.35
2022-10-24T23:59:50.558Z,3.60
